Terminal Aerodrome Forecast
Issued by NWS Sterling, VA

Current Version | Previous Version | Text Only | Print | Product List | Glossary Off
Versions: 1 2 3 4 5 6 7 8 9 10 11 12 13 14 15 16 17

000
FTUS41 KLWX 272320
TAFMRB
TAF
KMRB 272320Z 2800/2824 VRB03KT P6SM SKC
     FM280900 00000KT 3SM BR SCT110
     FM281000 00000KT 3SM BR BKN110
     FM281200 VRB03KT 5SM BR BKN060
     FM281500 09004KT P6SM BKN040
     FM281900 10006KT P6SM BKN025
     FM282100 09006KT 5SM SHRA BR OVC015
     FM282300 08005KT 5SM SHRA BR OVC008=

USA.gov is the U.S. government's official web portal to all federal, state and local government web resources and services.